createdAt,value
2023-12-31T00:01:50.313Z,17.17
2023-12-31T00:04:16.903Z,18.55
2023-12-31T00:06:43.435Z,19.48
2023-12-31T00:09:09.958Z,17.33
2023-12-31T00:11:36.425Z,15.18
2023-12-31T00:14:02.971Z,17.70
2023-12-31T00:16:29.562Z,16.73
2023-12-31T00:18:56.154Z,17.23
2023-12-31T00:21:22.738Z,18.60
2023-12-31T00:23:51.269Z,18.48
2023-12-31T00:26:17.862Z,17.23
2023-12-31T00:28:44.510Z,23.58
2023-12-31T00:31:11.141Z,17.87
2023-12-31T00:33:37.989Z,20.48
2023-12-31T00:36:05.714Z,19.93
2023-12-31T00:38:32.254Z,19.00
2023-12-31T00:40:58.815Z,19.15
2023-12-31T00:43:25.528Z,19.40
2023-12-31T00:45:52.124Z,20.63
2023-12-31T00:48:18.711Z,18.57
2023-12-31T00:50:45.371Z,18.90
2023-12-31T00:53:12.028Z,18.90
2023-12-31T00:55:40.062Z,18.85
2023-12-31T00:58:08.547Z,17.80
2023-12-31T01:00:35.203Z,19.48
2023-12-31T01:03:01.950Z,17.65
2023-12-31T01:05:28.735Z,21.70
2023-12-31T01:07:55.417Z,20.88
2023-12-31T01:10:22.060Z,20.85
2023-12-31T01:12:48.667Z,18.87
2023-12-31T01:15:15.253Z,20.25
2023-12-31T01:17:41.867Z,18.85
2023-12-31T01:20:09.640Z,16.55
2023-12-31T01:22:36.522Z,15.75
2023-12-31T01:25:04.724Z,15.50
2023-12-31T01:27:31.283Z,14.70
2023-12-31T01:29:57.912Z,15.45
2023-12-31T01:32:24.571Z,16.10
2023-12-31T01:34:51.237Z,14.87
2023-12-31T01:37:17.765Z,15.25
2023-12-31T01:39:44.413Z,16.15
2023-12-31T01:42:10.945Z,15.55
2023-12-31T01:44:37.452Z,14.75
2023-12-31T01:47:04.659Z,16.23
2023-12-31T01:49:32.089Z,20.50
2023-12-31T01:51:58.879Z,14.98
2023-12-31T01:54:26.431Z,19.77
2023-12-31T01:56:54.382Z,19.23
2023-12-31T01:59:24.087Z,20.52
2023-12-31T02:01:56.476Z,20.30
2023-12-31T02:04:31.869Z,13.70
2023-12-31T02:06:58.971Z,11.88
2023-12-31T02:09:25.909Z,13.33
2023-12-31T02:11:52.419Z,13.75
2023-12-31T02:14:18.922Z,15.02
2023-12-31T02:16:45.461Z,13.55
2023-12-31T02:19:12.007Z,11.82
2023-12-31T02:21:38.574Z,11.18
2023-12-31T02:24:05.403Z,12.35
2023-12-31T02:26:32.845Z,12.57
2023-12-31T02:28:59.363Z,15.85
2023-12-31T02:31:25.860Z,15.27
2023-12-31T02:33:52.507Z,13.70
2023-12-31T02:36:19.106Z,15.60
2023-12-31T02:38:45.580Z,11.93
2023-12-31T02:41:12.094Z,10.57
2023-12-31T02:43:38.933Z,14.43
2023-12-31T02:46:05.580Z,14.30
2023-12-31T02:48:32.140Z,12.20
2023-12-31T02:50:58.652Z,12.77
2023-12-31T02:53:25.153Z,11.77
2023-12-31T02:55:51.754Z,12.00
2023-12-31T02:58:18.293Z,12.20
2023-12-31T03:00:44.926Z,11.30
2023-12-31T03:03:11.467Z,11.13
2023-12-31T03:05:38.158Z,10.37
2023-12-31T03:08:05.088Z,11.03
2023-12-31T03:10:31.789Z,9.07
2023-12-31T03:12:58.307Z,11.60
2023-12-31T03:15:25.275Z,8.27
2023-12-31T03:17:52.320Z,8.70
2023-12-31T03:20:19.231Z,10.43
2023-12-31T03:22:48.957Z,8.30
2023-12-31T03:25:15.793Z,9.05
2023-12-31T03:27:42.399Z,8.30
2023-12-31T03:30:09.782Z,8.33
2023-12-31T03:32:36.492Z,8.52
2023-12-31T03:35:03.730Z,9.00
2023-12-31T03:37:30.766Z,9.55
2023-12-31T03:39:57.457Z,8.13
2023-12-31T03:42:25.002Z,8.15
2023-12-31T03:44:51.672Z,7.18
2023-12-31T03:47:18.235Z,10.07
2023-12-31T03:49:44.858Z,8.52
2023-12-31T03:52:12.168Z,7.97
2023-12-31T03:54:42.555Z,7.72
2023-12-31T03:57:09.174Z,7.05
2023-12-31T03:59:35.731Z,7.95
2023-12-31T04:02:02.406Z,8.23
2023-12-31T04:04:30.612Z,8.93
2023-12-31T04:06:57.429Z,10.67
2023-12-31T04:09:23.992Z,6.97
2023-12-31T04:11:50.598Z,8.25
2023-12-31T04:14:17.193Z,7.93
2023-12-31T04:16:44.015Z,10.13
2023-12-31T04:19:10.973Z,9.43
2023-12-31T04:21:37.487Z,8.23
2023-12-31T04:24:04.307Z,6.13
2023-12-31T04:26:30.835Z,7.68
2023-12-31T04:28:57.494Z,7.30
2023-12-31T04:31:24.035Z,7.10
2023-12-31T04:33:50.683Z,6.13
2023-12-31T04:36:17.492Z,8.43
2023-12-31T04:38:44.320Z,7.43
2023-12-31T04:41:20.600Z,8.05
2023-12-31T04:43:47.222Z,8.40
2023-12-31T04:46:13.818Z,7.60
2023-12-31T04:48:42.310Z,9.38
2023-12-31T04:51:08.843Z,7.90
2023-12-31T04:53:35.369Z,8.40
2023-12-31T04:56:01.879Z,8.38
2023-12-31T04:58:28.581Z,6.88
2023-12-31T05:00:55.082Z,9.40
2023-12-31T05:03:21.623Z,7.72
2023-12-31T05:05:48.204Z,7.55
2023-12-31T05:08:14.758Z,8.68
2023-12-31T05:10:41.820Z,7.55
2023-12-31T05:13:08.370Z,7.00
2023-12-31T05:15:36.211Z,8.40
2023-12-31T05:18:04.034Z,6.38
2023-12-31T05:20:30.608Z,5.93
2023-12-31T05:22:57.151Z,8.07
2023-12-31T05:25:23.713Z,6.13
2023-12-31T05:27:50.293Z,7.18
2023-12-31T05:30:16.942Z,7.10
2023-12-31T05:32:43.536Z,7.22
2023-12-31T05:35:10.338Z,7.28
2023-12-31T05:37:36.932Z,7.05
2023-12-31T05:40:05.264Z,9.60
2023-12-31T05:42:32.788Z,6.13
2023-12-31T05:44:59.426Z,8.27
2023-12-31T05:47:45.031Z,7.68
2023-12-31T05:50:12.609Z,7.70
2023-12-31T05:52:39.234Z,6.15
2023-12-31T05:55:06.315Z,7.70
2023-12-31T05:57:33.024Z,9.07
2023-12-31T06:00:00.762Z,7.35
2023-12-31T06:02:27.320Z,11.98
2023-12-31T06:04:53.842Z,7.77
2023-12-31T06:07:20.402Z,8.13
2023-12-31T06:09:46.939Z,6.95
2023-12-31T06:12:13.559Z,9.37
2023-12-31T06:14:40.079Z,6.72
2023-12-31T06:17:06.554Z,6.75
2023-12-31T06:19:35.071Z,6.75
2023-12-31T06:22:02.729Z,12.82
2023-12-31T06:24:29.233Z,7.22
2023-12-31T06:26:55.782Z,7.95
2023-12-31T06:29:22.317Z,11.15
2023-12-31T06:31:48.915Z,9.77
2023-12-31T06:34:15.570Z,11.13
2023-12-31T06:36:42.118Z,22.30
2023-12-31T06:39:09.557Z,11.80
2023-12-31T06:41:36.083Z,7.88
2023-12-31T06:44:02.607Z,7.85
2023-12-31T06:46:29.107Z,6.97
2023-12-31T06:48:57.448Z,11.60
2023-12-31T06:51:23.986Z,7.33
2023-12-31T06:53:51.098Z,6.32
2023-12-31T06:56:19.224Z,6.32
2023-12-31T06:58:45.749Z,7.60
2023-12-31T07:01:12.343Z,14.52
2023-12-31T07:03:39.148Z,16.50
2023-12-31T07:06:08.812Z,10.93
2023-12-31T07:08:35.818Z,5.60
2023-12-31T07:11:02.368Z,13.33
2023-12-31T07:13:28.931Z,8.90
2023-12-31T07:15:59.147Z,8.52
2023-12-31T07:18:26.694Z,6.57
2023-12-31T07:20:57.054Z,12.25
2023-12-31T07:23:23.669Z,13.88
2023-12-31T07:25:50.232Z,10.65
2023-12-31T07:28:16.840Z,9.63
2023-12-31T07:30:45.500Z,7.35
2023-12-31T07:33:12.281Z,5.80
2023-12-31T07:35:38.853Z,6.60
2023-12-31T07:38:07.975Z,5.05
2023-12-31T07:40:34.555Z,6.47
2023-12-31T07:43:01.387Z,6.63
2023-12-31T07:45:28.122Z,5.35
2023-12-31T07:47:54.818Z,5.13
2023-12-31T07:50:21.947Z,5.65
2023-12-31T07:52:48.465Z,5.30
2023-12-31T07:55:15.174Z,5.50
2023-12-31T07:57:41.760Z,7.55
2023-12-31T08:00:09.613Z,5.63
2023-12-31T08:02:36.532Z,8.65
2023-12-31T08:05:04.967Z,7.53
2023-12-31T08:07:31.637Z,5.00
2023-12-31T08:09:58.152Z,7.72
2023-12-31T08:12:26.013Z,6.00
2023-12-31T08:14:52.724Z,7.73
2023-12-31T08:17:19.292Z,4.68
2023-12-31T08:19:45.830Z,3.72
2023-12-31T08:22:12.391Z,3.72
2023-12-31T08:24:39.069Z,3.15
2023-12-31T08:27:05.619Z,3.40
2023-12-31T08:29:32.241Z,2.22
2023-12-31T08:31:58.778Z,2.45
2023-12-31T08:34:25.463Z,3.47
2023-12-31T08:36:52.143Z,4.45
2023-12-31T08:39:18.653Z,3.75
2023-12-31T08:41:45.189Z,3.75
2023-12-31T08:44:12.162Z,6.05
2023-12-31T08:46:38.806Z,4.68
2023-12-31T08:49:07.143Z,5.68
2023-12-31T08:51:33.938Z,4.47
2023-12-31T08:54:00.485Z,3.83
2023-12-31T08:56:27.002Z,3.45
2023-12-31T08:58:53.848Z,3.80
2023-12-31T09:01:20.623Z,1.97
2023-12-31T09:03:47.205Z,3.63
2023-12-31T09:06:13.740Z,3.55
2023-12-31T09:08:40.314Z,2.63
2023-12-31T09:11:07.270Z,4.38
2023-12-31T09:13:33.825Z,5.37
2023-12-31T09:16:00.322Z,4.30
2023-12-31T09:18:26.987Z,2.70
2023-12-31T09:20:53.527Z,3.78
2023-12-31T09:23:20.129Z,5.15
2023-12-31T09:25:46.949Z,6.13
2023-12-31T09:28:13.627Z,5.68
2023-12-31T09:30:40.250Z,4.68
2023-12-31T09:33:07.155Z,5.75
2023-12-31T09:35:34.085Z,8.02
2023-12-31T09:38:00.654Z,4.82
2023-12-31T09:40:27.321Z,5.57
2023-12-31T09:42:55.749Z,6.05
2023-12-31T09:45:25.042Z,6.65
2023-12-31T09:47:54.453Z,6.43
2023-12-31T09:50:23.201Z,6.20
2023-12-31T09:52:51.650Z,4.03
2023-12-31T09:55:19.865Z,6.47
2023-12-31T09:57:53.800Z,7.72
2023-12-31T10:00:20.888Z,4.70
2023-12-31T10:02:49.355Z,6.10
2023-12-31T10:05:17.775Z,5.45
2023-12-31T10:07:46.058Z,5.82
2023-12-31T10:10:15.631Z,5.43
2023-12-31T10:12:42.274Z,6.85
2023-12-31T10:15:10.028Z,9.55
2023-12-31T10:17:40.190Z,6.47
2023-12-31T10:20:09.079Z,6.90
2023-12-31T10:22:37.180Z,7.78
2023-12-31T10:25:15.371Z,6.85
2023-12-31T10:27:48.478Z,5.63
2023-12-31T10:30:15.834Z,5.82
2023-12-31T10:32:46.149Z,6.32
2023-12-31T10:35:12.799Z,4.53
2023-12-31T10:37:39.544Z,6.07
2023-12-31T10:40:21.307Z,7.85
2023-12-31T10:42:50.569Z,4.45
2023-12-31T10:45:19.603Z,4.43
2023-12-31T10:47:49.649Z,6.80
2023-12-31T10:50:21.146Z,6.65
2023-12-31T10:52:50.615Z,5.73
2023-12-31T10:55:17.629Z,6.88
2023-12-31T10:57:44.765Z,6.93
2023-12-31T11:00:14.620Z,5.30
2023-12-31T11:02:43.414Z,6.00
2023-12-31T11:05:10.712Z,4.18
2023-12-31T11:07:37.468Z,5.80
2023-12-31T11:10:05.203Z,6.88
2023-12-31T11:12:32.331Z,5.63
2023-12-31T11:15:05.614Z,9.55
2023-12-31T11:17:41.344Z,6.28
2023-12-31T11:20:18.885Z,6.88
2023-12-31T11:23:04.293Z,8.18
2023-12-31T11:25:32.583Z,7.10
2023-12-31T11:27:59.602Z,6.32
2023-12-31T11:30:53.139Z,8.88
2023-12-31T11:33:26.217Z,6.88
2023-12-31T11:35:53.652Z,9.07
2023-12-31T11:38:21.107Z,9.93
2023-12-31T11:40:50.055Z,7.97
2023-12-31T11:43:18.483Z,7.05
2023-12-31T11:45:48.404Z,9.63
2023-12-31T11:48:25.474Z,9.25
2023-12-31T11:50:58.053Z,10.10
2023-12-31T11:53:48.031Z,9.60
2023-12-31T11:56:15.104Z,10.07
2023-12-31T11:58:44.014Z,11.48
2023-12-31T12:01:10.880Z,10.48
2023-12-31T12:03:37.868Z,10.48
2023-12-31T12:06:04.650Z,8.75
2023-12-31T12:08:31.431Z,10.70
2023-12-31T12:10:58.065Z,10.68
2023-12-31T12:13:25.990Z,9.88
2023-12-31T12:15:52.492Z,10.05
2023-12-31T12:18:22.691Z,10.77
2023-12-31T12:20:49.706Z,10.57
2023-12-31T12:23:18.996Z,11.25
2023-12-31T12:25:46.078Z,10.57
2023-12-31T12:28:14.148Z,10.63
2023-12-31T12:30:42.355Z,10.70
2023-12-31T12:33:13.910Z,13.30
2023-12-31T12:35:43.295Z,11.07
2023-12-31T12:38:09.986Z,12.10
2023-12-31T12:40:36.631Z,12.68
2023-12-31T12:43:04.324Z,14.38
2023-12-31T12:45:33.619Z,12.35
2023-12-31T12:48:03.833Z,14.88
2023-12-31T12:50:31.837Z,18.38
2023-12-31T12:52:58.983Z,14.02
2023-12-31T12:55:25.979Z,13.63
2023-12-31T12:57:53.401Z,16.30
2023-12-31T13:00:20.103Z,15.77
2023-12-31T13:02:46.647Z,18.23
2023-12-31T13:05:13.280Z,19.77
2023-12-31T13:07:39.846Z,13.25
2023-12-31T13:10:06.995Z,13.73
2023-12-31T13:12:33.505Z,16.25
2023-12-31T13:14:59.975Z,16.52
2023-12-31T13:17:27.080Z,13.70
2023-12-31T13:19:55.788Z,14.00
2023-12-31T13:22:22.720Z,17.45
2023-12-31T13:24:49.298Z,12.27
2023-12-31T13:27:15.988Z,16.85
2023-12-31T13:29:43.151Z,15.07
2023-12-31T13:32:12.337Z,16.42
2023-12-31T13:34:39.125Z,17.65
2023-12-31T13:37:05.787Z,17.58
2023-12-31T13:39:32.986Z,14.63
2023-12-31T13:41:59.750Z,15.57
2023-12-31T13:44:26.309Z,16.98
2023-12-31T13:46:57.519Z,15.60
2023-12-31T13:49:25.033Z,15.18
2023-12-31T13:51:52.239Z,16.57
2023-12-31T13:54:19.919Z,14.98
2023-12-31T13:56:46.478Z,14.65
2023-12-31T13:59:13.921Z,15.65
2023-12-31T14:01:40.710Z,16.73
2023-12-31T14:04:08.296Z,15.30
2023-12-31T14:06:35.176Z,17.23
2023-12-31T14:09:04.150Z,16.50
2023-12-31T14:11:32.378Z,17.08
2023-12-31T14:13:59.056Z,15.27
2023-12-31T14:16:26.443Z,17.27
2023-12-31T14:18:53.186Z,16.88
2023-12-31T14:21:20.286Z,17.13
2023-12-31T14:23:46.809Z,18.38
2023-12-31T14:26:13.625Z,18.73
2023-12-31T14:28:40.319Z,18.92
2023-12-31T14:31:07.205Z,17.67
2023-12-31T14:33:33.917Z,16.85
2023-12-31T14:36:00.504Z,17.60
2023-12-31T14:38:26.968Z,19.35
2023-12-31T14:40:53.558Z,18.40
2023-12-31T14:43:20.229Z,14.25
2023-12-31T14:45:46.776Z,16.00
2023-12-31T14:48:13.371Z,19.63
2023-12-31T14:50:40.147Z,15.48
2023-12-31T14:53:07.121Z,18.88
2023-12-31T14:55:34.020Z,20.20
2023-12-31T14:58:00.860Z,15.93
2023-12-31T15:00:27.371Z,17.40
2023-12-31T15:02:54.047Z,15.90
2023-12-31T15:05:20.694Z,19.23
2023-12-31T15:07:47.520Z,16.23
2023-12-31T15:10:14.309Z,17.42
2023-12-31T15:12:41.073Z,13.85
2023-12-31T15:15:08.635Z,16.63
2023-12-31T15:17:35.200Z,13.23
2023-12-31T15:20:02.295Z,20.05
2023-12-31T15:22:30.012Z,13.90
2023-12-31T15:24:57.159Z,14.60
2023-12-31T15:27:24.183Z,16.55
2023-12-31T15:29:50.728Z,15.93
2023-12-31T15:32:18.315Z,19.95
2023-12-31T15:34:44.879Z,19.48
2023-12-31T15:37:11.543Z,20.23
2023-12-31T15:39:38.054Z,20.27
2023-12-31T15:42:05.683Z,18.73
2023-12-31T15:44:32.195Z,21.58
2023-12-31T15:46:59.352Z,20.73
2023-12-31T15:49:27.247Z,16.95
2023-12-31T15:51:53.963Z,18.42
2023-12-31T15:54:20.537Z,20.42
2023-12-31T15:56:47.109Z,21.85
2023-12-31T15:59:13.620Z,18.65
2023-12-31T16:01:40.225Z,20.70
2023-12-31T16:04:06.776Z,15.02
2023-12-31T16:06:33.303Z,11.23
2023-12-31T16:08:59.876Z,12.63
2023-12-31T16:11:26.442Z,11.35
2023-12-31T16:13:53.098Z,8.70
2023-12-31T16:16:19.609Z,8.53
2023-12-31T16:18:46.702Z,8.45
2023-12-31T16:21:13.637Z,7.88
2023-12-31T16:23:40.200Z,6.68
2023-12-31T16:26:06.867Z,7.57
2023-12-31T16:28:33.455Z,8.07
2023-12-31T16:31:00.064Z,9.50
2023-12-31T16:33:26.797Z,7.72
2023-12-31T16:35:53.467Z,8.98
2023-12-31T16:38:20.534Z,7.63
2023-12-31T16:40:47.131Z,9.07
2023-12-31T16:43:13.680Z,14.40
2023-12-31T16:45:40.247Z,9.65
2023-12-31T16:48:07.596Z,10.02
2023-12-31T16:50:35.414Z,10.07
2023-12-31T16:53:02.152Z,8.25
2023-12-31T16:55:28.812Z,15.90
2023-12-31T16:57:55.387Z,14.27
2023-12-31T17:00:22.207Z,14.98
2023-12-31T17:02:48.986Z,52.40
2023-12-31T17:05:16.322Z,53.78
2023-12-31T17:07:43.214Z,14.50
2023-12-31T17:10:13.298Z,15.25
2023-12-31T17:12:41.019Z,32.25
2023-12-31T17:15:10.949Z,16.88
2023-12-31T17:17:37.839Z,14.30
2023-12-31T17:20:05.569Z,18.63
2023-12-31T17:22:36.494Z,21.33
2023-12-31T17:25:03.681Z,14.05
2023-12-31T17:27:33.278Z,17.27
2023-12-31T17:30:00.889Z,20.57
2023-12-31T17:32:27.762Z,15.77
2023-12-31T17:34:54.440Z,15.38
2023-12-31T17:37:21.023Z,13.30
2023-12-31T17:39:47.616Z,13.85
2023-12-31T17:42:14.485Z,16.92
2023-12-31T17:44:41.057Z,12.55
2023-12-31T17:47:07.921Z,10.83
2023-12-31T17:49:34.454Z,8.40
2023-12-31T17:52:01.049Z,9.35
2023-12-31T17:54:27.632Z,12.30
2023-12-31T17:56:54.117Z,12.40
2023-12-31T17:59:20.615Z,10.35
2023-12-31T18:01:47.133Z,9.70
2023-12-31T18:04:13.628Z,8.05
2023-12-31T18:06:41.641Z,14.68
2023-12-31T18:09:09.422Z,9.57
2023-12-31T18:11:36.078Z,9.37
2023-12-31T18:14:02.897Z,10.30
2023-12-31T18:16:29.545Z,10.55
2023-12-31T18:18:56.215Z,11.00
2023-12-31T18:21:22.726Z,9.18
2023-12-31T18:23:49.222Z,10.95
2023-12-31T18:26:15.762Z,10.77
2023-12-31T18:28:42.280Z,9.02
2023-12-31T18:31:11.278Z,9.68
2023-12-31T18:33:37.852Z,10.73
2023-12-31T18:36:05.075Z,11.83
2023-12-31T18:38:31.634Z,12.10
2023-12-31T18:40:59.446Z,11.25
2023-12-31T18:43:26.198Z,10.32
2023-12-31T18:45:52.699Z,18.40
2023-12-31T18:48:19.382Z,16.08
2023-12-31T18:50:45.985Z,11.75
2023-12-31T18:53:12.600Z,13.10
2023-12-31T18:55:39.114Z,15.90
2023-12-31T18:58:06.071Z,12.05
2023-12-31T19:00:32.943Z,13.63
2023-12-31T19:03:00.303Z,14.27
2023-12-31T19:05:26.999Z,12.02
2023-12-31T19:07:53.676Z,14.63
2023-12-31T19:10:20.493Z,13.05
2023-12-31T19:12:48.288Z,13.70
2023-12-31T19:15:15.204Z,11.23
2023-12-31T19:17:42.188Z,9.30
2023-12-31T19:20:11.864Z,11.85
2023-12-31T19:22:38.577Z,11.13
2023-12-31T19:25:05.690Z,12.33
2023-12-31T19:27:32.202Z,12.20
2023-12-31T19:29:58.700Z,10.70
2023-12-31T19:32:25.265Z,9.70
2023-12-31T19:34:51.807Z,10.35
2023-12-31T19:37:20.101Z,11.50
2023-12-31T19:39:46.663Z,11.43
2023-12-31T19:42:13.770Z,12.25
2023-12-31T19:44:44.705Z,12.48
2023-12-31T19:47:11.426Z,14.63
2023-12-31T19:49:51.554Z,9.65
2023-12-31T19:52:26.534Z,10.23
2023-12-31T19:54:53.355Z,8.77
2023-12-31T19:57:19.882Z,12.32
2023-12-31T19:59:47.638Z,9.68
2023-12-31T20:02:14.685Z,11.45
2023-12-31T20:04:41.329Z,13.73
2023-12-31T20:07:07.912Z,9.80
2023-12-31T20:09:34.621Z,7.57
2023-12-31T20:12:01.172Z,11.73
2023-12-31T20:14:27.672Z,10.48
2023-12-31T20:16:54.232Z,13.98
2023-12-31T20:19:20.814Z,11.10
2023-12-31T20:21:47.401Z,12.07
2023-12-31T20:24:16.332Z,9.07
2023-12-31T20:26:43.960Z,10.40
2023-12-31T20:29:12.718Z,8.35
2023-12-31T20:31:41.121Z,8.18
2023-12-31T20:34:07.609Z,8.68
2023-12-31T20:36:34.173Z,12.50
2023-12-31T20:39:00.802Z,12.25
2023-12-31T20:41:27.321Z,10.73
2023-12-31T20:43:55.153Z,10.37
2023-12-31T20:46:21.925Z,10.52
2023-12-31T20:48:48.654Z,12.35
2023-12-31T20:51:15.685Z,11.07
2023-12-31T20:53:42.668Z,12.17
2023-12-31T20:56:11.017Z,11.38
2023-12-31T20:58:38.051Z,10.18
2023-12-31T21:01:05.398Z,9.02
2023-12-31T21:03:32.045Z,11.48
2023-12-31T21:05:58.650Z,12.55
2023-12-31T21:08:25.373Z,11.60
2023-12-31T21:10:52.104Z,11.88
2023-12-31T21:13:18.761Z,10.18
2023-12-31T21:15:45.297Z,10.75
2023-12-31T21:18:13.085Z,11.60
2023-12-31T21:20:41.936Z,10.27
2023-12-31T21:23:08.538Z,7.60
2023-12-31T21:25:39.414Z,15.40
2023-12-31T21:28:08.364Z,10.32
2023-12-31T21:30:35.651Z,13.17
2023-12-31T21:33:03.862Z,12.95
2023-12-31T21:35:30.515Z,11.68
2023-12-31T21:37:58.041Z,12.57
2023-12-31T21:40:24.820Z,11.73
2023-12-31T21:42:51.399Z,12.77
2023-12-31T21:45:18.075Z,10.73
2023-12-31T21:47:44.684Z,10.60
2023-12-31T21:50:11.449Z,12.70
2023-12-31T21:52:38.146Z,15.82
2023-12-31T21:55:13.558Z,11.93
2023-12-31T21:57:46.069Z,10.57
2023-12-31T22:00:13.498Z,13.20
2023-12-31T22:02:40.031Z,9.13
2023-12-31T22:05:07.256Z,12.90
2023-12-31T22:07:34.312Z,12.82
2023-12-31T22:10:00.841Z,13.45
2023-12-31T22:12:27.395Z,11.57
2023-12-31T22:14:54.193Z,12.52
2023-12-31T22:17:21.093Z,14.05
2023-12-31T22:19:49.438Z,11.40
2023-12-31T22:22:16.769Z,13.25
2023-12-31T22:24:43.278Z,12.05
2023-12-31T22:27:09.931Z,11.45
2023-12-31T22:29:36.467Z,14.27
2023-12-31T22:32:03.657Z,10.68
2023-12-31T22:34:34.464Z,12.20
2023-12-31T22:37:00.970Z,13.27
2023-12-31T22:39:27.480Z,11.07
2023-12-31T22:41:54.041Z,12.25
2023-12-31T22:44:20.994Z,12.87
2023-12-31T22:46:47.532Z,14.23
2023-12-31T22:49:14.050Z,16.20
2023-12-31T22:51:40.916Z,14.15
2023-12-31T22:54:07.486Z,14.82
2023-12-31T22:56:33.997Z,16.88
2023-12-31T22:59:00.654Z,14.57
2023-12-31T23:01:30.494Z,17.80
2023-12-31T23:03:57.392Z,15.00
2023-12-31T23:06:24.052Z,17.23
2023-12-31T23:08:51.497Z,16.05
2023-12-31T23:11:18.088Z,12.45
2023-12-31T23:13:46.584Z,16.13
2023-12-31T23:16:13.379Z,18.77
2023-12-31T23:18:39.974Z,17.30
2023-12-31T23:21:10.484Z,17.77
2023-12-31T23:23:38.089Z,19.60
2023-12-31T23:26:05.013Z,13.55
2023-12-31T23:28:32.773Z,17.02
2023-12-31T23:30:59.428Z,15.32
2023-12-31T23:33:26.502Z,17.20
2023-12-31T23:35:53.177Z,19.85
2023-12-31T23:38:19.723Z,15.50
2023-12-31T23:40:48.410Z,19.13
2023-12-31T23:43:15.887Z,15.80
2023-12-31T23:45:42.586Z,20.17
2023-12-31T23:48:09.758Z,19.55
2023-12-31T23:50:36.662Z,16.40
2023-12-31T23:53:03.306Z,15.50
2023-12-31T23:55:29.914Z,14.57
2023-12-31T23:58:04.410Z,21.15
